Sumifukumaru No.5 — JD3058 — position and weather

sailwx.info

Track history (hours):
 
Tides and Currents Weather Stations Pressure Air Temp Water Temp Dewpoint Dewpoint Depression Visibility Wind Speed Wind Dir Waves Ship Positions

Sumifukumaru No.5

Last reported at 2016-Feb-08 05:33 UTC. Time now 2016-Feb-08 06:13 UTC.
Position N 35°41' E 139°57'.

Length 75 m; draft 4.4 m.

Type: Cargo ship. MMSI: 431001371.

Date/timePositionNaut miles runAvg speedWind from/ knotsBaromVisibWave heightAir tempDewpointWater temp
2016-Feb-08 05:33N 35°41' E 139°57'0 0.0
2016-Feb-08 04:31N 35°41' E 139°57'0 0.0
2016-Feb-08 03:19N 35°41' E 139°57'0 0.0
2016-Feb-08 02:33N 35°41' E 139°57'0 0.3
2016-Feb-08 01:33N 35°41' E 139°57'4 4.0
2016-Feb-08 00:33N 35°37' E 139°58'0 0.0
2016-Feb-07 23:33N 35°37' E 139°58'0 0.0
2016-Feb-07 22:33N 35°37' E 139°58'0 0.0
2016-Feb-07 21:30N 35°37' E 139°58'0 0.0
2016-Feb-07 20:33N 35°37' E 139°58'0 0.0
2016-Feb-07 19:33N 35°37' E 139°58'0 0.0
2016-Feb-07 18:33N 35°37' E 139°58'0 0.0
2016-Feb-07 17:33N 35°37' E 139°58'0 0.0
2016-Feb-07 16:33N 35°37' E 139°58'6 6.4
2016-Feb-07 15:33N 35°32' E 139°54'1111.2
2016-Feb-07 14:33N 35°23' E 139°46'1110.5
2016-Feb-07 13:33N 35°12' E 139°47'244 9.4
2016-Feb-06 11:33N 34°05' E 135°02'1211.5
2016-Feb-06 10:28N 34°17' E 135°03'1010.9
2016-Feb-06 09:33N 34°25' E 135°11'1111.1
2016-Feb-06 08:32N 34°34' E 135°20'6 0.3
2016-Feb-05 11:16N 34°34' E 135°27'1 0.2
2016-Feb-05 02:07N 34°35' E 135°27'5 8.5
2016-Feb-05 01:33N 34°35' E 135°21'1111.2
2016-Feb-05 00:32N 34°27' E 135°12'1311.0
2016-Feb-04 23:20N 34°16' E 135°03'4 4.2
2016-Feb-04 22:28N 34°15' E 135°07'0 0.0
2016-Feb-04 21:31N 34°15' E 135°07'0 0.0
2016-Feb-04 20:25N 34°15' E 135°07'0 0.0
2016-Feb-04 19:31N 34°15' E 135°07'0 0.0
2016-Feb-04 18:31N 34°15' E 135°07'0 0.0
2016-Feb-04 17:31N 34°15' E 135°07'0 0.0
2016-Feb-04 16:31N 34°15' E 135°07'0 0.0
2016-Feb-04 15:31N 34°15' E 135°07'0 0.0
2016-Feb-04 14:31N 34°15' E 135°07'0 0.0
2016-Feb-04 13:31N 34°15' E 135°07'0 0.1
2016-Feb-04 12:31N 34°15' E 135°07'0 0.0
2016-Feb-04 11:31N 34°15' E 135°07'0 0.0
2016-Feb-04 10:31N 34°15' E 135°07'0 0.0
2016-Feb-04 09:31N 34°15' E 135°07'0 0.0
2016-Feb-04 08:31N 34°15' E 135°07'0 0.0
2016-Feb-04 07:31N 34°15' E 135°07'0 0.0
2016-Feb-04 06:25N 34°15' E 135°07'0 0.0
2016-Feb-04 05:22N 34°15' E 135°07'0 0.0
2016-Feb-04 04:31N 34°15' E 135°07'0 0.0
2016-Feb-04 03:31N 34°15' E 135°07'0 0.0
2016-Feb-04 02:31N 34°15' E 135°07'0 0.0
2016-Feb-04 01:31N 34°15' E 135°07'0 0.0
2016-Feb-04 00:31N 34°15' E 135°07'0 0.0
2016-Feb-03 23:32N 34°15' E 135°07'  
2016-Jan-31 11:33N 34°05' E 135°02'1311.9
2016-Jan-31 10:29N 34°18' E 135°04'1111.7
2016-Jan-31 09:32N 34°27' E 135°12'1111.6
2016-Jan-31 08:33N 34°35' E 135°21'5 0.5
2016-Jan-30 23:23N 34°34' E 135°27'0 0.0
2016-Jan-30 19:17N 34°34' E 135°27'0 0.0
2016-Jan-30 18:29N 34°34' E 135°27'0 0.0
2016-Jan-30 16:15N 34°34' E 135°27'1 0.0
2016-Jan-29 21:33N 34°35' E 135°27'0 0.0
2016-Jan-29 20:23N 34°35' E 135°27'0 0.0
2016-Jan-29 19:23N 34°35' E 135°27'0 0.0
2016-Jan-29 15:29N 34°35' E 135°27'0 0.0
2016-Jan-29 14:32N 34°35' E 135°27'7 6.9
2016-Jan-29 13:33N 34°36' E 135°19'1212.3
2016-Jan-29 12:33N 34°35' E 135°04'  
Track history (hours):
 
Tides and Currents Weather Stations Pressure Air Temp Water Temp Dewpoint Dewpoint Depression Visibility Wind Speed Wind Dir Waves Ship Positions

Sumifukumaru No.5

Last reported at 2016-Feb-08 05:33 UTC. Time now 2016-Feb-08 06:13 UTC.
Position N 35°41' E 139°57'.

Length 75 m; draft 4.4 m.

Type: Cargo ship. MMSI: 431001371.

Date/timePositionNaut miles runAvg speedWind from/ knotsBaromVisibWave heightAir tempDewpointWater temp
2016-Feb-08 05:33N 35°41' E 139°57'0 0.0
2016-Feb-08 04:31N 35°41' E 139°57'0 0.0
2016-Feb-08 03:19N 35°41' E 139°57'0 0.0
2016-Feb-08 02:33N 35°41' E 139°57'0 0.3
2016-Feb-08 01:33N 35°41' E 139°57'4 4.0
2016-Feb-08 00:33N 35°37' E 139°58'0 0.0
2016-Feb-07 23:33N 35°37' E 139°58'0 0.0
2016-Feb-07 22:33N 35°37' E 139°58'0 0.0
2016-Feb-07 21:30N 35°37' E 139°58'0 0.0
2016-Feb-07 20:33N 35°37' E 139°58'0 0.0
2016-Feb-07 19:33N 35°37' E 139°58'0 0.0
2016-Feb-07 18:33N 35°37' E 139°58'0 0.0
2016-Feb-07 17:33N 35°37' E 139°58'0 0.0
2016-Feb-07 16:33N 35°37' E 139°58'6 6.4
2016-Feb-07 15:33N 35°32' E 139°54'1111.2
2016-Feb-07 14:33N 35°23' E 139°46'1110.5
2016-Feb-07 13:33N 35°12' E 139°47'244 9.4
2016-Feb-06 11:33N 34°05' E 135°02'1211.5
2016-Feb-06 10:28N 34°17' E 135°03'1010.9
2016-Feb-06 09:33N 34°25' E 135°11'1111.1
2016-Feb-06 08:32N 34°34' E 135°20'6 0.3
2016-Feb-05 11:16N 34°34' E 135°27'1 0.2
2016-Feb-05 02:07N 34°35' E 135°27'5 8.5
2016-Feb-05 01:33N 34°35' E 135°21'1111.2
2016-Feb-05 00:32N 34°27' E 135°12'1311.0
2016-Feb-04 23:20N 34°16' E 135°03'4 4.2
2016-Feb-04 22:28N 34°15' E 135°07'0 0.0
2016-Feb-04 21:31N 34°15' E 135°07'0 0.0
2016-Feb-04 20:25N 34°15' E 135°07'0 0.0
2016-Feb-04 19:31N 34°15' E 135°07'0 0.0
2016-Feb-04 18:31N 34°15' E 135°07'0 0.0
2016-Feb-04 17:31N 34°15' E 135°07'0 0.0
2016-Feb-04 16:31N 34°15' E 135°07'0 0.0
2016-Feb-04 15:31N 34°15' E 135°07'0 0.0
2016-Feb-04 14:31N 34°15' E 135°07'0 0.0
2016-Feb-04 13:31N 34°15' E 135°07'0 0.1
2016-Feb-04 12:31N 34°15' E 135°07'0 0.0
2016-Feb-04 11:31N 34°15' E 135°07'0 0.0
2016-Feb-04 10:31N 34°15' E 135°07'0 0.0
2016-Feb-04 09:31N 34°15' E 135°07'0 0.0
2016-Feb-04 08:31N 34°15' E 135°07'0 0.0
2016-Feb-04 07:31N 34°15' E 135°07'0 0.0
2016-Feb-04 06:25N 34°15' E 135°07'0 0.0
2016-Feb-04 05:22N 34°15' E 135°07'0 0.0
2016-Feb-04 04:31N 34°15' E 135°07'0 0.0
2016-Feb-04 03:31N 34°15' E 135°07'0 0.0
2016-Feb-04 02:31N 34°15' E 135°07'0 0.0
2016-Feb-04 01:31N 34°15' E 135°07'0 0.0
2016-Feb-04 00:31N 34°15' E 135°07'0 0.0
2016-Feb-03 23:32N 34°15' E 135°07'  
2016-Jan-31 11:33N 34°05' E 135°02'1311.9
2016-Jan-31 10:29N 34°18' E 135°04'1111.7
2016-Jan-31 09:32N 34°27' E 135°12'1111.6
2016-Jan-31 08:33N 34°35' E 135°21'5 0.5
2016-Jan-30 23:23N 34°34' E 135°27'0 0.0
2016-Jan-30 19:17N 34°34' E 135°27'0 0.0
2016-Jan-30 18:29N 34°34' E 135°27'0 0.0
2016-Jan-30 16:15N 34°34' E 135°27'1 0.0
2016-Jan-29 21:33N 34°35' E 135°27'0 0.0
2016-Jan-29 20:23N 34°35' E 135°27'0 0.0
2016-Jan-29 19:23N 34°35' E 135°27'0 0.0
2016-Jan-29 15:29N 34°35' E 135°27'0 0.0
2016-Jan-29 14:32N 34°35' E 135°27'7 6.9
2016-Jan-29 13:33N 34°36' E 135°19'1212.3
2016-Jan-29 12:33N 34°35' E 135°04'  

Dump ship's entire track history